createdAt,value
2019-04-26T00:00:41.780Z,12.59
2019-04-26T00:01:41.764Z,12.59
2019-04-26T00:02:41.772Z,12.54
2019-04-26T00:03:41.729Z,12.56
2019-04-26T00:04:41.711Z,12.56
2019-04-26T00:05:41.698Z,12.53
2019-04-26T00:06:41.687Z,12.59
2019-04-26T00:07:41.680Z,12.59
2019-04-26T00:08:41.638Z,12.57
2019-04-26T00:09:41.624Z,12.57
2019-04-26T00:10:41.609Z,12.56
2019-04-26T00:11:41.581Z,12.54
2019-04-26T00:12:41.566Z,12.57
2019-04-26T00:13:41.566Z,12.47
2019-04-26T00:14:41.547Z,12.49
2019-04-26T00:15:41.513Z,12.41
2019-04-26T00:16:41.496Z,12.41
2019-04-26T00:17:41.477Z,12.38
2019-04-26T00:18:41.458Z,12.38
2019-04-26T00:19:41.463Z,12.38
2019-04-26T00:20:41.421Z,12.34
2019-04-26T00:21:41.407Z,12.37
2019-04-26T00:22:41.386Z,12.32
2019-04-26T00:23:41.398Z,12.34
2019-04-26T00:24:41.370Z,12.29
2019-04-26T00:25:41.336Z,12.29
2019-04-26T00:26:41.311Z,12.32
2019-04-26T00:27:41.297Z,12.34
2019-04-26T00:28:41.281Z,12.27
2019-04-26T00:29:41.261Z,12.28
2019-04-26T00:30:41.265Z,12.29
2019-04-26T00:31:41.225Z,12.32
2019-04-26T00:32:41.208Z,12.29
2019-04-26T00:33:41.193Z,12.31
2019-04-26T00:34:41.179Z,12.32
2019-04-26T00:35:47.385Z,12.24
2019-04-26T00:36:41.157Z,12.28
2019-04-26T00:37:41.117Z,12.28
2019-04-26T00:38:41.098Z,12.29
2019-04-26T00:39:41.087Z,12.19
2019-04-26T00:40:41.074Z,12.21
2019-04-26T00:41:41.047Z,12.19
2019-04-26T00:42:41.865Z,12.19
2019-04-26T00:43:41.012Z,12.14
2019-04-26T00:44:41.035Z,12.13
2019-04-26T00:45:40.979Z,12.19
2019-04-26T00:46:40.967Z,12.17
2019-04-26T00:47:40.959Z,12.16
2019-04-26T00:48:40.930Z,12.10
2019-04-26T00:49:43.933Z,12.16
2019-04-26T00:50:40.920Z,12.05
2019-04-26T00:51:40.872Z,12.14
2019-04-26T00:52:40.932Z,12.13
2019-04-26T00:53:40.858Z,12.13
2019-04-26T00:54:40.888Z,12.07
2019-04-26T00:55:40.810Z,12.12
2019-04-26T00:56:40.788Z,12.04
2019-04-26T00:57:40.787Z,12.07
2019-04-26T00:58:40.801Z,12.07
2019-04-26T00:59:40.731Z,12.05
2019-04-26T01:00:40.830Z,12.07
2019-04-26T01:01:40.697Z,12.07
2019-04-26T01:02:40.760Z,11.99
2019-04-26T01:03:40.693Z,11.95
2019-04-26T01:04:40.643Z,11.96
2019-04-26T01:05:40.623Z,11.95
2019-04-26T01:06:40.620Z,11.96
2019-04-26T01:07:40.589Z,12.05
2019-04-26T01:08:40.649Z,12.02
2019-04-26T01:09:40.567Z,11.96
2019-04-26T01:10:40.534Z,12.10
2019-04-26T01:11:40.514Z,12.02
2019-04-26T01:12:40.495Z,11.99
2019-04-26T01:13:40.478Z,12.04
2019-04-26T01:14:40.459Z,11.96
2019-04-26T01:15:40.466Z,11.91
2019-04-26T01:16:40.431Z,12.04
2019-04-26T01:17:40.414Z,11.95
2019-04-26T01:18:40.390Z,12.04
2019-04-26T01:19:40.373Z,11.91
2019-04-26T01:20:40.512Z,11.96
2019-04-26T01:21:40.336Z,12.07
2019-04-26T01:22:40.322Z,12.02
2019-04-26T01:23:40.303Z,12.10
2019-04-26T01:24:40.283Z,11.95
2019-04-26T01:25:40.280Z,11.95
2019-04-26T01:26:40.434Z,11.99
2019-04-26T01:27:40.231Z,11.96
2019-04-26T01:28:40.212Z,12.01
2019-04-26T01:29:40.192Z,11.96
2019-04-26T01:30:40.393Z,11.83
2019-04-26T01:31:40.162Z,11.91
2019-04-26T01:32:40.139Z,11.95
2019-04-26T01:33:40.126Z,12.02
2019-04-26T01:34:40.107Z,12.09
2019-04-26T01:35:40.088Z,12.07
2019-04-26T01:36:40.086Z,12.09
2019-04-26T01:37:40.051Z,12.01
2019-04-26T01:38:40.033Z,12.07
2019-04-26T01:39:40.008Z,12.13
2019-04-26T01:40:39.996Z,12.21
2019-04-26T01:41:39.979Z,12.17
2019-04-26T01:42:39.973Z,12.14
2019-04-26T01:43:39.937Z,12.14
2019-04-26T01:44:39.924Z,12.14
2019-04-26T01:45:39.906Z,12.14
2019-04-26T01:46:39.888Z,12.07
2019-04-26T01:47:39.888Z,11.95
2019-04-26T01:48:39.855Z,12.14
2019-04-26T01:49:39.836Z,12.13
2019-04-26T01:50:39.812Z,12.10
2019-04-26T01:51:39.797Z,12.16
2019-04-26T01:52:39.795Z,12.17
2019-04-26T01:53:39.761Z,12.13
2019-04-26T01:54:39.741Z,12.02
2019-04-26T01:55:39.724Z,11.95
2019-04-26T01:56:39.704Z,12.10
2019-04-26T01:57:39.686Z,12.13
2019-04-26T01:58:39.694Z,12.12
2019-04-26T01:59:39.659Z,12.16
2019-04-26T02:00:39.634Z,12.16
2019-04-26T02:01:39.613Z,12.02
2019-04-26T02:02:39.632Z,12.21
2019-04-26T02:03:39.578Z,12.07
2019-04-26T02:04:39.567Z,12.07
2019-04-26T02:05:39.541Z,12.04
2019-04-26T02:06:39.522Z,12.07
2019-04-26T02:07:39.506Z,12.01
2019-04-26T02:08:39.500Z,11.96
2019-04-26T02:09:39.467Z,11.90
2019-04-26T02:10:39.448Z,11.91
2019-04-26T02:11:39.437Z,11.80
2019-04-26T02:12:39.416Z,11.82
2019-04-26T02:13:39.408Z,11.83
2019-04-26T02:14:39.381Z,11.91
2019-04-26T02:15:39.357Z,11.83
2019-04-26T02:16:39.356Z,11.79
2019-04-26T02:17:39.321Z,11.78
2019-04-26T02:18:39.326Z,11.64
2019-04-26T02:19:39.283Z,11.85
2019-04-26T02:20:39.265Z,11.83
2019-04-26T02:21:39.253Z,11.86
2019-04-26T02:22:39.231Z,11.86
2019-04-26T02:23:39.228Z,11.85
2019-04-26T02:24:39.198Z,11.83
2019-04-26T02:25:39.178Z,11.88
2019-04-26T02:26:39.158Z,11.90
2019-04-26T02:27:39.145Z,11.95
2019-04-26T02:28:39.133Z,11.88
2019-04-26T02:29:39.120Z,11.95
2019-04-26T02:30:39.088Z,11.98
2019-04-26T02:31:39.079Z,12.01
2019-04-26T02:32:39.051Z,11.98
2019-04-26T02:33:39.036Z,11.83
2019-04-26T02:34:39.048Z,11.88
2019-04-26T02:35:39.036Z,11.82
2019-04-26T02:36:56.213Z,11.76
2019-04-26T02:37:38.964Z,11.65
2019-04-26T02:38:38.961Z,11.72
2019-04-26T02:39:38.918Z,11.67
2019-04-26T02:40:38.918Z,11.70
2019-04-26T02:41:38.881Z,11.65
2019-04-26T02:42:38.870Z,11.79
2019-04-26T02:43:38.862Z,11.86
2019-04-26T02:44:38.847Z,11.76
2019-04-26T02:45:38.833Z,11.80
2019-04-26T02:46:38.790Z,11.73
2019-04-26T02:47:39.245Z,11.75
2019-04-26T02:48:38.758Z,11.73
2019-04-26T02:49:38.756Z,11.67
2019-04-26T02:50:38.727Z,11.64
2019-04-26T02:51:38.700Z,11.57
2019-04-26T02:52:39.189Z,11.57
2019-04-26T02:53:38.909Z,11.69
2019-04-26T02:54:38.646Z,11.73
2019-04-26T02:55:42.426Z,11.69
2019-04-26T02:56:40.154Z,11.72
2019-04-26T02:57:38.958Z,11.64
2019-04-26T02:58:39.124Z,11.67
2019-04-26T02:59:40.607Z,11.62
2019-04-26T03:00:39.148Z,11.58
2019-04-26T03:01:40.061Z,11.55
2019-04-26T03:02:40.331Z,11.49
2019-04-26T03:03:39.729Z,11.52
2019-04-26T03:04:39.509Z,11.57
2019-04-26T03:05:39.747Z,11.49
2019-04-26T03:06:40.608Z,11.43
2019-04-26T03:07:39.177Z,11.46
2019-04-26T03:08:39.365Z,11.35
2019-04-26T03:09:38.922Z,11.44
2019-04-26T03:10:40.263Z,11.42
2019-04-26T03:11:39.119Z,11.29
2019-04-26T03:12:39.525Z,11.46
2019-04-26T03:13:40.085Z,11.51
2019-04-26T03:14:39.734Z,11.44
2019-04-26T03:15:38.932Z,11.40
2019-04-26T03:16:39.242Z,11.33
2019-04-26T03:17:39.770Z,11.40
2019-04-26T03:18:39.451Z,11.42
2019-04-26T03:19:39.533Z,11.46
2019-04-26T03:20:38.371Z,11.47
2019-04-26T03:21:39.306Z,11.42
2019-04-26T03:22:39.448Z,11.46
2019-04-26T03:23:56.370Z,11.44
2019-04-26T03:24:39.275Z,11.29
2019-04-26T03:25:39.953Z,11.43
2019-04-26T03:26:39.522Z,11.43
2019-04-26T03:27:39.282Z,11.46
2019-04-26T03:28:40.013Z,11.36
2019-04-26T03:29:39.585Z,11.35
2019-04-26T03:30:44.478Z,11.29
2019-04-26T03:31:47.717Z,11.43
2019-04-26T03:32:48.305Z,11.36
2019-04-26T03:33:45.227Z,11.40
2019-04-26T03:34:43.349Z,11.42
2019-04-26T03:35:48.894Z,11.40
2019-04-26T03:36:40.659Z,11.43
2019-04-26T03:37:38.326Z,11.37
2019-04-26T03:38:39.638Z,11.44
2019-04-26T03:39:40.312Z,11.36
2019-04-26T03:40:38.978Z,11.39
2019-04-26T03:41:39.010Z,11.25
2019-04-26T03:42:38.798Z,11.28
2019-04-26T03:43:39.262Z,11.24
2019-04-26T03:44:39.002Z,11.33
2019-04-26T03:45:38.964Z,11.32
2019-04-26T03:46:39.197Z,11.33
2019-04-26T03:47:40.031Z,11.39
2019-04-26T03:48:39.295Z,11.27
2019-04-26T03:49:39.265Z,11.27
2019-04-26T03:50:39.032Z,11.32
2019-04-26T03:51:39.623Z,11.27
2019-04-26T03:52:39.654Z,11.27
2019-04-26T03:53:39.389Z,11.33
2019-04-26T03:54:39.255Z,11.28
2019-04-26T03:55:38.291Z,11.27
2019-04-26T03:56:38.606Z,11.24
2019-04-26T03:57:38.786Z,11.29
2019-04-26T03:58:38.567Z,11.37
2019-04-26T03:59:38.896Z,11.32
2019-04-26T04:00:38.929Z,11.32
2019-04-26T04:01:38.995Z,11.39
2019-04-26T04:02:38.874Z,11.40
2019-04-26T04:03:39.274Z,11.33
2019-04-26T04:04:38.938Z,11.27
2019-04-26T04:05:37.987Z,11.29
2019-04-26T04:06:57.064Z,11.32
2019-04-26T04:07:43.930Z,11.28
2019-04-26T04:08:38.393Z,11.25
2019-04-26T04:09:38.028Z,11.27
2019-04-26T04:10:39.289Z,11.24
2019-04-26T04:11:38.425Z,11.24
2019-04-26T04:12:38.362Z,11.32
2019-04-26T04:13:39.000Z,11.24
2019-04-26T04:14:38.446Z,11.32
2019-04-26T04:15:38.725Z,11.32
2019-04-26T04:16:39.173Z,11.25
2019-04-26T04:17:38.888Z,11.33
2019-04-26T04:18:38.828Z,11.33
2019-04-26T04:19:38.588Z,11.37
2019-04-26T04:20:38.517Z,11.47
2019-04-26T04:21:38.658Z,11.40
2019-04-26T04:22:37.919Z,11.36
2019-04-26T04:23:37.507Z,11.35
2019-04-26T04:24:39.045Z,11.29
2019-04-26T04:25:39.273Z,11.39
2019-04-26T04:26:39.089Z,11.28
2019-04-26T04:27:39.314Z,11.37
2019-04-26T04:28:39.834Z,11.42
2019-04-26T04:29:42.707Z,11.42
2019-04-26T04:30:40.000Z,11.54
2019-04-26T04:31:38.362Z,11.44
2019-04-26T04:32:36.869Z,11.61
2019-04-26T04:33:36.841Z,11.49
2019-04-26T04:34:36.841Z,11.67
2019-04-26T04:35:36.848Z,11.60
2019-04-26T04:36:36.786Z,11.60
2019-04-26T04:37:52.667Z,11.49
2019-04-26T04:38:36.766Z,11.60
2019-04-26T04:39:36.720Z,11.52
2019-04-26T04:40:36.701Z,11.55
2019-04-26T04:41:36.732Z,11.62
2019-04-26T04:42:36.687Z,11.58
2019-04-26T04:43:36.700Z,11.58
2019-04-26T04:44:36.640Z,11.55
2019-04-26T04:45:36.637Z,11.54
2019-04-26T04:46:36.603Z,11.62
2019-04-26T04:47:36.579Z,11.60
2019-04-26T04:48:36.564Z,11.64
2019-04-26T04:49:36.559Z,11.62
2019-04-26T04:50:36.529Z,11.64
2019-04-26T04:51:36.505Z,11.60
2019-04-26T04:52:36.488Z,11.55
2019-04-26T04:53:36.472Z,11.58
2019-04-26T04:54:36.465Z,11.57
2019-04-26T04:55:36.436Z,11.67
2019-04-26T04:56:36.419Z,11.54
2019-04-26T04:57:36.391Z,11.61
2019-04-26T04:58:36.378Z,11.61
2019-04-26T04:59:36.412Z,11.51
2019-04-26T05:00:36.343Z,11.62
2019-04-26T05:01:36.327Z,11.60
2019-04-26T05:02:36.322Z,11.62
2019-04-26T05:03:36.281Z,11.55
2019-04-26T05:04:36.267Z,11.62
2019-04-26T05:05:36.327Z,11.65
2019-04-26T05:06:36.236Z,11.70
2019-04-26T05:07:36.387Z,11.79
2019-04-26T05:08:36.193Z,11.67
2019-04-26T05:09:36.174Z,11.64
2019-04-26T05:10:36.154Z,11.55
2019-04-26T05:11:36.159Z,11.40
2019-04-26T05:12:36.141Z,11.54
2019-04-26T05:13:36.110Z,11.61
2019-04-26T05:14:36.081Z,11.65
2019-04-26T05:15:36.073Z,11.57
2019-04-26T05:16:36.086Z,11.57
2019-04-26T05:17:36.033Z,11.60
2019-04-26T05:18:36.041Z,11.58
2019-04-26T05:19:36.087Z,11.64
2019-04-26T05:20:35.972Z,11.69
2019-04-26T05:21:35.984Z,11.67
2019-04-26T05:22:35.954Z,11.73
2019-04-26T05:23:35.931Z,11.67
2019-04-26T05:24:35.901Z,11.79
2019-04-26T05:25:35.877Z,11.83
2019-04-26T05:26:35.865Z,11.80
2019-04-26T05:27:35.872Z,11.79
2019-04-26T05:28:35.825Z,11.73
2019-04-26T05:29:35.817Z,11.70
2019-04-26T05:30:35.790Z,11.76
2019-04-26T05:31:35.776Z,11.75
2019-04-26T05:32:35.789Z,11.70
2019-04-26T05:33:35.737Z,11.69
2019-04-26T05:34:35.713Z,11.64
2019-04-26T05:35:35.698Z,11.73
2019-04-26T05:36:35.683Z,11.70
2019-04-26T05:37:37.147Z,11.70
2019-04-26T05:38:35.669Z,11.80
2019-04-26T05:39:35.640Z,11.85
2019-04-26T05:40:35.611Z,11.85
2019-04-26T05:41:35.597Z,11.80
2019-04-26T05:42:35.582Z,11.69
2019-04-26T05:43:35.554Z,11.64
2019-04-26T05:44:35.532Z,11.65
2019-04-26T05:45:35.647Z,11.72
2019-04-26T05:46:35.497Z,11.70
2019-04-26T05:47:35.484Z,11.76
2019-04-26T05:48:35.458Z,11.80
2019-04-26T05:49:35.456Z,11.64
2019-04-26T05:50:35.424Z,11.83
2019-04-26T05:51:35.418Z,11.78
2019-04-26T05:52:35.387Z,11.85
2019-04-26T05:53:35.363Z,11.85
2019-04-26T05:54:35.376Z,11.82
2019-04-26T05:55:35.328Z,11.86
2019-04-26T05:56:35.309Z,11.78
2019-04-26T05:57:35.495Z,11.79
2019-04-26T05:58:35.275Z,11.67
2019-04-26T05:59:35.258Z,11.72
2019-04-26T06:00:35.261Z,11.76
2019-04-26T06:01:35.233Z,11.80
2019-04-26T06:02:35.200Z,11.70
2019-04-26T06:03:35.193Z,11.76
2019-04-26T06:04:35.164Z,11.83
2019-04-26T06:05:35.163Z,11.85
2019-04-26T06:06:35.161Z,11.80
2019-04-26T06:07:35.124Z,11.78
2019-04-26T06:08:35.103Z,11.67
2019-04-26T06:09:35.073Z,11.67
2019-04-26T06:10:35.066Z,11.65
2019-04-26T06:11:35.033Z,11.65
2019-04-26T06:12:35.055Z,11.72
2019-04-26T06:13:35.032Z,11.67
2019-04-26T06:14:35.025Z,11.85
2019-04-26T06:15:35.004Z,11.83
2019-04-26T06:16:34.977Z,11.91
2019-04-26T06:17:34.979Z,11.80
2019-04-26T06:18:34.954Z,11.79
2019-04-26T06:19:34.954Z,11.78
2019-04-26T06:20:34.876Z,11.91
2019-04-26T06:21:34.852Z,11.76
2019-04-26T06:22:34.854Z,11.80
2019-04-26T06:23:34.820Z,11.79
2019-04-26T06:24:34.800Z,11.76
2019-04-26T06:25:34.776Z,11.72
2019-04-26T06:26:34.764Z,11.72
2019-04-26T06:27:34.740Z,11.72
2019-04-26T06:28:34.745Z,11.65
2019-04-26T06:29:34.700Z,11.85
2019-04-26T06:30:45.046Z,11.69
2019-04-26T06:31:34.700Z,11.82
2019-04-26T06:32:34.721Z,11.80
2019-04-26T06:33:34.625Z,11.83
2019-04-26T06:34:34.616Z,11.79
2019-04-26T06:35:34.593Z,11.69
2019-04-26T06:36:34.584Z,11.76
2019-04-26T06:37:34.588Z,11.78
2019-04-26T06:38:43.731Z,11.76
2019-04-26T06:39:34.517Z,11.79
2019-04-26T06:40:41.841Z,11.76
2019-04-26T06:41:34.486Z,11.65
2019-04-26T06:42:34.475Z,11.72
2019-04-26T06:43:34.468Z,11.70
2019-04-26T06:44:34.438Z,11.80
2019-04-26T06:45:34.411Z,11.78
2019-04-26T06:46:34.389Z,11.90
2019-04-26T06:47:34.375Z,11.86
2019-04-26T06:48:34.353Z,11.76
2019-04-26T06:49:34.350Z,11.86
2019-04-26T06:50:34.327Z,11.80
2019-04-26T06:51:34.309Z,11.96
2019-04-26T06:52:34.319Z,11.86
2019-04-26T06:53:34.269Z,11.96
2019-04-26T06:54:34.288Z,11.95
2019-04-26T06:55:34.243Z,11.95
2019-04-26T06:56:34.210Z,12.05
2019-04-26T06:57:34.181Z,11.96
2019-04-26T06:58:34.169Z,11.86
2019-04-26T06:59:36.643Z,11.98
2019-04-26T07:00:34.187Z,11.85
2019-04-26T07:01:34.123Z,11.96
2019-04-26T07:02:34.089Z,11.98
2019-04-26T07:03:34.091Z,12.01
2019-04-26T07:04:34.056Z,11.99
2019-04-26T07:05:34.056Z,12.09
2019-04-26T07:06:35.184Z,12.05
2019-04-26T07:07:34.033Z,12.07
2019-04-26T07:08:34.021Z,12.01
2019-04-26T07:09:33.970Z,11.96
2019-04-26T07:10:33.945Z,11.99
2019-04-26T07:11:33.934Z,11.99
2019-04-26T07:12:33.913Z,12.01
2019-04-26T07:13:33.914Z,12.07
2019-04-26T07:14:33.898Z,12.04
2019-04-26T07:15:33.861Z,11.99
2019-04-26T07:16:33.837Z,12.01
2019-04-26T07:17:33.834Z,11.96
2019-04-26T07:18:33.798Z,12.09
2019-04-26T07:19:33.784Z,11.99
2019-04-26T07:20:33.764Z,12.04
2019-04-26T07:21:33.748Z,12.02
2019-04-26T07:22:35.589Z,11.96
2019-04-26T07:23:33.707Z,12.01
2019-04-26T07:24:33.714Z,12.02
2019-04-26T07:25:33.674Z,11.95
2019-04-26T07:26:33.660Z,11.99
2019-04-26T07:27:33.654Z,11.86
2019-04-26T07:28:33.625Z,11.98
2019-04-26T07:29:33.599Z,11.98
2019-04-26T07:30:33.580Z,11.90
2019-04-26T07:31:33.562Z,12.02
2019-04-26T07:32:33.576Z,12.01
2019-04-26T07:33:33.524Z,12.01
2019-04-26T07:34:33.503Z,12.01
2019-04-26T07:35:33.483Z,12.10
2019-04-26T07:36:33.480Z,11.98
2019-04-26T07:37:33.531Z,12.16
2019-04-26T07:38:33.425Z,12.09
2019-04-26T07:39:33.413Z,11.99
2019-04-26T07:40:33.405Z,12.02
2019-04-26T07:41:33.378Z,12.14
2019-04-26T07:42:33.365Z,12.04
2019-04-26T07:43:33.358Z,12.04
2019-04-26T07:44:33.326Z,12.17
2019-04-26T07:45:33.301Z,12.13
2019-04-26T07:46:33.283Z,12.14
2019-04-26T07:47:33.275Z,12.07
2019-04-26T07:48:33.297Z,12.12
2019-04-26T07:49:33.286Z,12.19
2019-04-26T07:50:33.283Z,12.17
2019-04-26T07:51:33.260Z,12.16
2019-04-26T07:52:33.302Z,12.20
2019-04-26T07:53:33.317Z,12.21
2019-04-26T07:54:33.176Z,12.28
2019-04-26T07:55:33.300Z,12.31
2019-04-26T07:56:33.166Z,12.29
2019-04-26T07:57:33.087Z,12.28
2019-04-26T07:58:33.066Z,12.23
2019-04-26T07:59:33.073Z,12.38
2019-04-26T08:00:44.398Z,12.35
2019-04-26T08:01:33.010Z,12.24
2019-04-26T08:02:32.990Z,12.31
2019-04-26T08:03:32.974Z,12.27
2019-04-26T08:04:32.980Z,12.37
2019-04-26T08:05:32.953Z,12.41
2019-04-26T08:06:32.930Z,12.50
2019-04-26T08:07:32.934Z,12.54
2019-04-26T08:08:32.914Z,12.47
2019-04-26T08:09:32.912Z,12.52
2019-04-26T08:10:32.871Z,12.56
2019-04-26T08:11:32.838Z,12.56
2019-04-26T08:12:32.830Z,12.71
2019-04-26T08:13:32.813Z,12.75
2019-04-26T08:14:32.773Z,12.72
2019-04-26T08:15:32.773Z,12.83
2019-04-26T08:16:32.737Z,12.77
2019-04-26T08:17:32.721Z,12.75
2019-04-26T08:18:32.702Z,12.77
2019-04-26T08:19:32.683Z,12.79
2019-04-26T08:20:33.142Z,12.74
2019-04-26T08:21:32.666Z,12.77
2019-04-26T08:22:33.838Z,12.65
2019-04-26T08:23:41.442Z,12.64
2019-04-26T08:24:32.603Z,12.49
2019-04-26T08:25:32.584Z,12.56
2019-04-26T08:26:32.581Z,12.54
2019-04-26T08:27:32.544Z,12.68
2019-04-26T08:28:32.543Z,12.71
2019-04-26T08:29:33.317Z,12.72
2019-04-26T08:30:32.486Z,12.75
2019-04-26T08:31:32.469Z,12.77
2019-04-26T08:32:33.431Z,12.77
2019-04-26T08:33:32.434Z,12.79
2019-04-26T08:34:33.817Z,12.89
2019-04-26T08:35:32.407Z,12.90
2019-04-26T08:36:32.380Z,12.89
2019-04-26T08:37:36.258Z,12.87
2019-04-26T08:38:32.347Z,12.82
2019-04-26T08:39:44.475Z,12.87
2019-04-26T08:40:32.405Z,12.90
2019-04-26T08:41:35.223Z,13.08
2019-04-26T08:42:32.288Z,13.03
2019-04-26T08:43:32.268Z,12.89
2019-04-26T08:44:34.499Z,12.89
2019-04-26T08:45:32.235Z,12.90
2019-04-26T08:46:35.818Z,12.95
2019-04-26T08:47:32.183Z,13.08
2019-04-26T08:48:32.201Z,13.07
2019-04-26T08:49:35.135Z,13.05
2019-04-26T08:50:32.127Z,12.92
2019-04-26T08:51:32.113Z,13.00
2019-04-26T08:52:32.093Z,12.97
2019-04-26T08:53:32.077Z,12.92
2019-04-26T08:54:32.654Z,12.96
2019-04-26T08:55:32.046Z,12.93
2019-04-26T08:56:32.026Z,12.97
2019-04-26T08:57:32.025Z,13.01
2019-04-26T08:58:32.005Z,13.03
2019-04-26T08:59:31.989Z,13.04
2019-04-26T09:00:31.995Z,12.96
2019-04-26T09:01:31.939Z,13.14
2019-04-26T09:02:31.949Z,13.10
2019-04-26T09:03:32.465Z,13.10
2019-04-26T09:04:31.903Z,13.00
2019-04-26T09:05:31.878Z,13.04
2019-04-26T09:06:31.841Z,12.97
2019-04-26T09:07:31.829Z,13.01
2019-04-26T09:08:31.832Z,13.01
2019-04-26T09:09:32.421Z,12.90
2019-04-26T09:10:31.773Z,12.89
2019-04-26T09:11:33.968Z,12.85
2019-04-26T09:12:31.762Z,12.85
2019-04-26T09:13:31.723Z,12.85
2019-04-26T09:14:31.710Z,12.92
2019-04-26T09:15:31.683Z,13.00
2019-04-26T09:16:31.678Z,12.97
2019-04-26T09:17:32.246Z,12.93
2019-04-26T09:18:42.517Z,12.93
2019-04-26T09:19:32.219Z,13.08
2019-04-26T09:20:31.618Z,12.96
2019-04-26T09:21:31.595Z,13.01
2019-04-26T09:22:31.568Z,13.03
2019-04-26T09:23:39.777Z,13.01
2019-04-26T09:24:31.567Z,13.12
2019-04-26T09:25:34.546Z,13.00
2019-04-26T09:26:31.576Z,13.04
2019-04-26T09:27:31.486Z,12.92
2019-04-26T09:28:31.455Z,12.96
2019-04-26T09:29:32.156Z,13.04
2019-04-26T09:30:34.395Z,13.10
2019-04-26T09:31:31.398Z,13.08
2019-04-26T09:32:31.381Z,13.10
2019-04-26T09:33:31.684Z,13.11
2019-04-26T09:34:31.357Z,13.14
2019-04-26T09:35:31.332Z,13.10
2019-04-26T09:36:31.306Z,13.28
2019-04-26T09:37:31.287Z,13.14
2019-04-26T09:38:31.274Z,13.29
2019-04-26T09:39:31.297Z,13.25
2019-04-26T09:40:31.240Z,13.36
2019-04-26T09:41:32.181Z,13.36
2019-04-26T09:42:31.203Z,13.41
2019-04-26T09:43:31.189Z,13.52
2019-04-26T09:44:31.247Z,13.57
2019-04-26T09:45:31.173Z,13.59
2019-04-26T09:46:31.144Z,13.70
2019-04-26T09:47:31.115Z,13.57
2019-04-26T09:48:31.104Z,13.82
2019-04-26T09:49:31.115Z,14.00
2019-04-26T09:50:31.064Z,14.04
2019-04-26T09:51:34.771Z,14.25
2019-04-26T09:52:31.177Z,14.22
2019-04-26T09:53:31.010Z,14.22
2019-04-26T09:54:31.004Z,14.21
2019-04-26T09:55:35.602Z,14.20
2019-04-26T09:56:30.990Z,14.04
2019-04-26T09:57:30.952Z,14.15
2019-04-26T09:58:32.198Z,14.17
2019-04-26T09:59:30.939Z,14.21
2019-04-26T10:00:31.029Z,14.20
2019-04-26T10:01:30.871Z,14.21
2019-04-26T10:02:33.844Z,14.17
2019-04-26T10:03:30.835Z,14.17
2019-04-26T10:04:30.813Z,14.18
2019-04-26T10:05:30.810Z,14.15
2019-04-26T10:06:30.989Z,14.27
2019-04-26T10:07:33.358Z,14.32
2019-04-26T10:08:30.887Z,14.35
2019-04-26T10:09:30.957Z,14.35
2019-04-26T10:10:30.881Z,14.32
2019-04-26T10:11:30.712Z,14.18
2019-04-26T10:12:30.681Z,14.10
2019-04-26T10:13:30.683Z,13.97
2019-04-26T10:14:30.658Z,13.92
2019-04-26T10:15:30.631Z,13.92
2019-04-26T10:16:33.519Z,13.95
2019-04-26T10:17:30.604Z,14.02
2019-04-26T10:18:30.622Z,14.02
2019-04-26T10:19:31.730Z,14.07
2019-04-26T10:20:30.545Z,14.02
2019-04-26T10:21:30.537Z,13.97
2019-04-26T10:22:30.639Z,13.97
2019-04-26T10:23:30.495Z,13.99
2019-04-26T10:24:30.685Z,14.07
2019-04-26T10:25:30.461Z,14.00
2019-04-26T10:26:30.449Z,14.10
2019-04-26T10:27:32.446Z,13.97
2019-04-26T10:28:30.419Z,13.92
2019-04-26T10:29:30.723Z,14.00
2019-04-26T10:30:30.395Z,13.99
2019-04-26T10:31:30.359Z,14.07
2019-04-26T10:32:30.357Z,14.17
2019-04-26T10:33:32.559Z,14.18
2019-04-26T10:34:30.324Z,14.22
2019-04-26T10:35:30.291Z,14.28
2019-04-26T10:36:31.424Z,14.22
2019-04-26T10:37:39.219Z,14.21
2019-04-26T10:38:30.262Z,14.21
2019-04-26T10:39:32.425Z,14.17
2019-04-26T10:40:35.733Z,14.20
2019-04-26T10:41:30.209Z,14.00
2019-04-26T10:42:30.186Z,14.18
2019-04-26T10:43:30.162Z,14.17
2019-04-26T10:44:30.143Z,14.21
2019-04-26T10:45:30.112Z,14.25
2019-04-26T10:46:30.103Z,14.18
2019-04-26T10:47:30.102Z,14.27
2019-04-26T10:48:30.073Z,14.29
2019-04-26T10:49:30.046Z,14.17
2019-04-26T10:50:32.919Z,14.24
2019-04-26T10:51:30.046Z,14.18
2019-04-26T10:52:30.013Z,14.24
2019-04-26T10:53:31.855Z,14.24
2019-04-26T10:54:29.972Z,14.35
2019-04-26T10:55:29.950Z,14.20
2019-04-26T10:56:29.934Z,14.17
2019-04-26T10:57:29.936Z,14.29
2019-04-26T10:58:31.849Z,14.28
2019-04-26T10:59:31.743Z,14.29
2019-04-26T11:00:29.883Z,14.29
2019-04-26T11:01:29.847Z,14.36
2019-04-26T11:02:29.834Z,14.42
2019-04-26T11:03:29.812Z,14.37
2019-04-26T11:04:29.799Z,14.36
2019-04-26T11:05:29.781Z,14.55
2019-04-26T11:06:29.827Z,14.70
2019-04-26T11:07:29.743Z,14.70
2019-04-26T11:08:29.738Z,14.42
2019-04-26T11:09:29.714Z,14.28
2019-04-26T11:10:29.721Z,14.57
2019-04-26T11:11:29.683Z,14.94
2019-04-26T11:12:29.667Z,15.06
2019-04-26T11:13:29.658Z,15.21
2019-04-26T11:14:29.651Z,15.49
2019-04-26T11:15:32.708Z,15.64
2019-04-26T11:16:29.614Z,15.86
2019-04-26T11:17:29.574Z,15.96
2019-04-26T11:18:29.574Z,16.23
2019-04-26T11:19:31.905Z,16.31
2019-04-26T11:20:29.542Z,16.17
2019-04-26T11:21:29.526Z,16.11
2019-04-26T11:22:33.128Z,15.89
2019-04-26T11:23:29.498Z,15.82
2019-04-26T11:24:29.461Z,15.75
2019-04-26T11:25:29.561Z,15.84
2019-04-26T11:26:31.071Z,15.72
2019-04-26T11:27:29.418Z,15.89
2019-04-26T11:28:29.552Z,15.92
2019-04-26T11:29:30.202Z,16.20
2019-04-26T11:30:29.367Z,16.48
2019-04-26T11:31:29.379Z,16.73
2019-04-26T11:32:29.341Z,16.96
2019-04-26T11:33:29.308Z,16.94
2019-04-26T11:34:29.382Z,16.75
2019-04-26T11:35:33.013Z,16.41
2019-04-26T11:36:29.272Z,16.33
2019-04-26T11:37:29.275Z,16.21
2019-04-26T11:38:31.332Z,16.24
2019-04-26T11:39:29.243Z,16.17
2019-04-26T11:40:29.281Z,16.11
2019-04-26T11:41:29.192Z,15.90
2019-04-26T11:42:29.170Z,15.82
2019-04-26T11:43:29.204Z,15.82
2019-04-26T11:44:29.147Z,15.86
2019-04-26T11:45:29.169Z,15.86
2019-04-26T11:46:30.307Z,16.01
2019-04-26T11:47:29.089Z,15.96
2019-04-26T11:48:30.543Z,16.00
2019-04-26T11:49:29.091Z,16.15
2019-04-26T11:50:29.050Z,16.02
2019-04-26T11:51:29.028Z,16.14
2019-04-26T11:52:32.147Z,16.23
2019-04-26T11:53:29.024Z,16.05
2019-04-26T11:54:29.004Z,15.93
2019-04-26T11:55:29.981Z,16.04
2019-04-26T11:56:29.560Z,15.89
2019-04-26T11:57:28.983Z,15.97
2019-04-26T11:58:29.009Z,16.05
2019-04-26T11:59:30.568Z,15.94
2019-04-26T12:02:12.227Z,15.90
2019-04-26T12:03:10.936Z,15.83
2019-04-26T12:04:10.925Z,15.82
2019-04-26T12:05:10.952Z,15.72
2019-04-26T12:06:10.882Z,15.80
2019-04-26T12:07:10.870Z,15.62
2019-04-26T12:08:10.860Z,15.72
2019-04-26T12:09:10.839Z,15.89
2019-04-26T12:10:11.381Z,15.90
2019-04-26T12:11:18.290Z,15.84
2019-04-26T12:12:13.229Z,15.86
2019-04-26T12:13:10.790Z,16.04
2019-04-26T12:14:20.170Z,16.08
2019-04-26T12:15:10.753Z,16.08
2019-04-26T12:16:14.686Z,16.09
2019-04-26T12:17:10.749Z,16.23
2019-04-26T12:18:11.163Z,16.12
2019-04-26T12:19:14.169Z,16.04
2019-04-26T12:20:10.657Z,16.07
2019-04-26T12:21:10.647Z,16.09
2019-04-26T12:22:10.634Z,16.07
2019-04-26T12:23:13.612Z,15.96
2019-04-26T12:24:10.598Z,15.92
2019-04-26T12:25:10.580Z,15.84
2019-04-26T12:26:10.571Z,15.90
2019-04-26T12:27:10.756Z,15.80
2019-04-26T12:28:10.589Z,15.96
2019-04-26T12:29:14.552Z,15.84
2019-04-26T12:30:10.496Z,15.82
2019-04-26T12:31:10.496Z,15.92
2019-04-26T12:32:10.499Z,16.02
2019-04-26T12:33:10.446Z,16.17
2019-04-26T12:34:10.440Z,16.24
2019-04-26T12:35:10.442Z,16.31
2019-04-26T12:36:13.396Z,16.31
2019-04-26T12:37:13.083Z,16.35
2019-04-26T12:38:10.372Z,16.35
2019-04-26T12:39:10.359Z,16.34
2019-04-26T12:40:11.531Z,16.31
2019-04-26T12:41:11.587Z,16.38
2019-04-26T12:42:12.270Z,16.38
2019-04-26T12:43:10.290Z,16.39
2019-04-26T12:44:10.289Z,16.56
2019-04-26T12:45:12.273Z,16.53
2019-04-26T12:46:10.269Z,16.50
2019-04-26T12:47:10.224Z,16.56
2019-04-26T12:48:12.288Z,16.79
2019-04-26T12:50:52.462Z,17.19
2019-04-26T12:51:52.474Z,17.04
2019-04-26T12:52:55.710Z,16.85
2019-04-26T12:53:52.414Z,16.73
2019-04-26T12:54:52.400Z,16.97
2019-04-26T12:55:53.666Z,17.08